createdAt,value
2023-04-01T00:02:11.567Z,5.30
2023-04-01T00:05:03.009Z,6.20
2023-04-01T00:07:53.247Z,6.13
2023-04-01T00:10:42.820Z,6.17
2023-04-01T00:13:32.209Z,4.93
2023-04-01T00:16:22.747Z,5.23
2023-04-01T00:19:12.397Z,5.20
2023-04-01T00:22:03.444Z,4.80
2023-04-01T00:24:52.929Z,5.10
2023-04-01T00:27:42.440Z,5.00
2023-04-01T00:30:32.239Z,5.00
2023-04-01T00:33:21.764Z,4.63
2023-04-01T00:36:12.771Z,4.70
2023-04-01T00:39:03.700Z,5.37
2023-04-01T00:41:53.721Z,5.33
2023-04-01T00:44:43.815Z,6.30
2023-04-01T00:47:33.492Z,5.37
2023-04-01T00:50:25.727Z,8.13
2023-04-01T00:53:16.181Z,5.17
2023-04-01T00:56:15.363Z,6.07
2023-04-01T00:59:09.733Z,5.60
2023-04-01T01:01:59.375Z,5.40
2023-04-01T01:04:48.993Z,6.00
2023-04-01T01:07:48.042Z,5.63
2023-04-01T01:10:40.349Z,5.27
2023-04-01T01:13:38.800Z,6.03
2023-04-01T01:16:31.753Z,5.67
2023-04-01T01:19:42.163Z,6.20
2023-04-01T01:22:50.904Z,6.87
2023-04-01T01:25:47.242Z,7.80
2023-04-01T01:28:50.716Z,8.17
2023-04-01T01:31:53.805Z,8.03
2023-04-01T01:34:53.170Z,6.80
2023-04-01T01:37:45.315Z,6.07
2023-04-01T01:40:36.750Z,6.77
2023-04-01T01:43:29.352Z,6.50
2023-04-01T01:46:22.670Z,6.37
2023-04-01T01:49:14.432Z,6.80
2023-04-01T01:52:05.300Z,6.13
2023-04-01T01:54:58.440Z,5.83
2023-04-01T01:57:48.214Z,5.87
2023-04-01T02:00:39.002Z,5.37
2023-04-01T02:03:30.940Z,5.73
2023-04-01T02:06:22.779Z,6.53
2023-04-01T02:09:14.099Z,5.90
2023-04-01T02:12:19.866Z,7.05
2023-04-01T02:15:12.589Z,5.40
2023-04-01T02:18:04.497Z,4.80
2023-04-01T02:20:54.873Z,6.13
2023-04-01T02:23:46.163Z,5.37
2023-04-01T02:26:37.083Z,5.40
2023-04-01T02:29:28.427Z,5.63
2023-04-01T02:32:21.668Z,5.30
2023-04-01T02:35:13.796Z,5.70
2023-04-01T02:38:05.841Z,5.50
2023-04-01T02:41:04.184Z,6.37
2023-04-01T02:43:53.702Z,6.47
2023-04-01T02:46:45.443Z,6.23
2023-04-01T02:49:35.098Z,6.40
2023-04-01T02:52:26.149Z,5.27
2023-04-01T02:55:15.863Z,5.93
2023-04-01T02:58:06.478Z,6.27
2023-04-01T03:00:55.900Z,5.87
2023-04-01T03:03:47.704Z,7.03
2023-04-01T03:06:37.710Z,9.60
2023-04-01T03:09:34.697Z,7.90
2023-04-01T03:12:24.710Z,8.40
2023-04-01T03:15:16.157Z,7.40
2023-04-01T03:18:05.750Z,7.77
2023-04-01T03:20:56.780Z,8.37
2023-04-01T03:23:46.243Z,8.70
2023-04-01T03:26:39.371Z,7.60
2023-04-01T03:29:32.338Z,7.33
2023-04-01T03:32:22.029Z,8.47
2023-04-01T03:35:13.418Z,9.50
2023-04-01T03:38:05.918Z,7.10
2023-04-01T03:40:56.775Z,9.67
2023-04-01T03:43:48.764Z,9.37
2023-04-01T03:46:41.251Z,7.97
2023-04-01T03:49:35.494Z,8.17
2023-04-01T03:52:25.917Z,10.13
2023-04-01T03:55:19.499Z,8.90
2023-04-01T03:58:09.730Z,9.60
2023-04-01T04:01:01.801Z,8.80
2023-04-01T04:03:53.871Z,8.33
2023-04-01T04:06:43.442Z,8.53
2023-04-01T04:09:35.920Z,10.77
2023-04-01T04:12:28.328Z,14.53
2023-04-01T04:15:18.547Z,10.60
2023-04-01T04:18:08.179Z,9.80
2023-04-01T04:20:57.802Z,9.43
2023-04-01T04:23:49.170Z,10.03
2023-04-01T04:26:48.512Z,8.97
2023-04-01T04:29:40.150Z,8.13
2023-04-01T04:32:30.103Z,7.93
2023-04-01T04:35:22.124Z,10.47
2023-04-01T04:38:14.060Z,11.73
2023-04-01T04:41:03.550Z,11.80
2023-04-01T04:43:55.153Z,14.60
2023-04-01T04:46:47.842Z,20.67
2023-04-01T04:49:39.200Z,16.20
2023-04-01T04:52:28.587Z,10.87
2023-04-01T04:55:19.385Z,9.67
2023-04-01T04:58:09.277Z,8.20
2023-04-01T05:00:59.007Z,7.90
2023-04-01T05:03:50.546Z,13.73
2023-04-01T05:06:41.208Z,15.37
2023-04-01T05:09:30.815Z,12.77
2023-04-01T05:12:21.699Z,9.63
2023-04-01T05:15:12.147Z,8.97
2023-04-01T05:18:01.566Z,8.27
2023-04-01T05:20:54.664Z,9.73
2023-04-01T05:23:45.187Z,8.00
2023-04-01T05:26:34.764Z,8.23
2023-04-01T05:29:28.391Z,8.83
2023-04-01T05:32:20.919Z,9.40
2023-04-01T05:35:13.519Z,10.53
2023-04-01T05:38:07.206Z,13.73
2023-04-01T05:41:06.469Z,11.23
2023-04-01T05:43:58.240Z,10.60
2023-04-01T05:46:49.501Z,10.63
2023-04-01T05:49:41.973Z,15.93
2023-04-01T05:52:34.754Z,11.70
2023-04-01T05:55:25.981Z,12.60
2023-04-01T05:58:17.313Z,13.70
2023-04-01T06:01:15.802Z,12.13
2023-04-01T06:04:07.049Z,13.80
2023-04-01T06:06:59.009Z,14.80
2023-04-01T06:09:49.522Z,13.53
2023-04-01T06:12:58.721Z,13.60
2023-04-01T06:16:00.389Z,11.03
2023-04-01T06:19:12.387Z,13.20
2023-04-01T06:22:30.702Z,14.30
2023-04-01T06:25:49.684Z,10.67
2023-04-01T06:28:55.517Z,11.30
2023-04-01T06:32:14.447Z,11.60
2023-04-01T06:35:36.885Z,11.10
2023-04-01T06:38:52.183Z,11.50
2023-04-01T06:42:10.345Z,10.93
2023-04-01T06:45:14.342Z,11.97
2023-04-01T06:48:18.214Z,9.30
2023-04-01T06:51:24.316Z,9.30
2023-04-01T06:54:18.009Z,11.20
2023-04-01T06:57:22.145Z,10.63
2023-04-01T07:00:24.619Z,9.97
2023-04-01T07:03:24.006Z,9.57
2023-04-01T07:06:19.056Z,9.77
2023-04-01T07:09:14.839Z,9.87
2023-04-01T07:12:11.978Z,11.53
2023-04-01T07:15:15.108Z,11.00
2023-04-01T07:18:20.881Z,11.53
2023-04-01T07:21:20.703Z,10.87
2023-04-01T07:24:20.268Z,11.53
2023-04-01T07:27:14.948Z,10.63
2023-04-01T07:30:06.244Z,9.97
2023-04-01T07:33:20.296Z,8.30
2023-04-01T07:36:24.642Z,8.77
2023-04-01T07:39:29.700Z,8.23
2023-04-01T07:42:32.396Z,7.40
2023-04-01T07:45:31.827Z,7.87
2023-04-01T07:48:29.182Z,7.90
2023-04-01T07:51:28.164Z,8.50
2023-04-01T07:54:25.433Z,8.37
2023-04-01T07:57:23.787Z,8.50
2023-04-01T08:00:23.035Z,8.43
2023-04-01T08:03:33.156Z,9.13
2023-04-01T08:06:31.919Z,9.30
2023-04-01T08:09:30.811Z,10.20
2023-04-01T08:12:30.990Z,8.77
2023-04-01T08:15:25.025Z,8.50
2023-04-01T08:18:34.394Z,8.00
2023-04-01T08:21:31.554Z,7.70
2023-04-01T08:24:44.441Z,7.60
2023-04-01T08:27:41.335Z,7.07
2023-04-01T08:30:40.529Z,7.10
2023-04-01T08:33:33.931Z,6.40
2023-04-01T08:36:29.924Z,6.80
2023-04-01T08:39:23.797Z,6.80
2023-04-01T08:42:33.583Z,6.00
2023-04-01T08:45:42.819Z,5.90
2023-04-01T08:48:54.861Z,6.03
2023-04-01T08:52:12.655Z,5.50
2023-04-01T08:55:24.306Z,5.63
2023-04-01T08:58:55.043Z,5.03
2023-04-01T09:02:09.278Z,5.50
2023-04-01T09:05:34.993Z,6.13
2023-04-01T09:08:39.279Z,5.83
2023-04-01T09:11:44.989Z,5.93
2023-04-01T09:14:58.277Z,5.20
2023-04-01T09:18:32.240Z,5.73
2023-04-01T09:21:46.860Z,5.70
2023-04-01T09:25:09.969Z,5.57
2023-04-01T09:28:03.987Z,6.03
2023-04-01T09:31:19.605Z,6.47
2023-04-01T09:34:36.804Z,6.83
2023-04-01T09:37:41.007Z,6.90
2023-04-01T09:40:44.864Z,6.57
2023-04-01T09:43:49.893Z,6.77
2023-04-01T09:46:55.632Z,6.90
2023-04-01T09:50:16.747Z,6.57
2023-04-01T09:53:18.954Z,6.90
2023-04-01T09:56:56.264Z,6.80
2023-04-01T10:00:21.544Z,6.30
2023-04-01T10:03:39.314Z,6.30
2023-04-01T10:07:24.588Z,5.60
2023-04-01T10:10:50.117Z,6.10
2023-04-01T10:14:28.816Z,6.33
2023-04-01T10:18:07.523Z,6.43
2023-04-01T10:21:21.150Z,6.17
2023-04-01T10:24:33.076Z,6.73
2023-04-01T10:27:50.409Z,6.33
2023-04-01T10:31:13.091Z,6.47
2023-04-01T10:34:54.120Z,6.80
2023-04-01T10:38:07.467Z,6.87
2023-04-01T10:41:31.932Z,6.20
2023-04-01T10:44:57.657Z,6.57
2023-04-01T10:48:16.197Z,5.83
2023-04-01T10:51:23.890Z,6.50
2023-04-01T10:54:35.398Z,6.90
2023-04-01T10:57:45.322Z,6.30
2023-04-01T11:01:17.253Z,6.70
2023-04-01T11:04:39.659Z,7.63
2023-04-01T11:08:07.947Z,7.70
2023-04-01T11:11:30.885Z,7.47
2023-04-01T11:14:54.765Z,8.83
2023-04-01T11:18:25.872Z,8.87
2023-04-01T11:21:40.663Z,9.40
2023-04-01T11:24:49.798Z,11.33
2023-04-01T11:28:04.700Z,12.40
2023-04-01T11:31:14.110Z,12.10
2023-04-01T11:34:19.256Z,13.17
2023-04-01T11:37:18.042Z,12.30
2023-04-01T11:40:17.562Z,12.03
2023-04-01T11:43:32.978Z,12.00
2023-04-01T11:46:32.701Z,10.57
2023-04-01T11:49:41.063Z,11.57
2023-04-01T11:52:56.645Z,12.17
2023-04-01T11:55:59.360Z,12.03
2023-04-01T11:59:05.079Z,9.90
2023-04-01T12:02:04.671Z,10.80
2023-04-01T12:05:05.459Z,10.80
2023-04-01T12:08:09.235Z,10.33
2023-04-01T12:11:04.041Z,11.53
2023-04-01T12:14:06.559Z,10.37
2023-04-01T12:17:04.863Z,11.50
2023-04-01T12:20:13.754Z,10.77
2023-04-01T12:23:18.899Z,11.10
2023-04-01T12:26:44.630Z,11.43
2023-04-01T12:30:08.611Z,11.27
2023-04-01T12:33:23.933Z,11.33
2023-04-01T12:36:26.643Z,11.17
2023-04-01T12:39:36.119Z,10.97
2023-04-01T12:42:43.662Z,11.37
2023-04-01T12:45:35.858Z,7.50
2023-04-01T12:48:54.991Z,4.77
2023-04-01T12:52:01.187Z,3.80
2023-04-01T12:55:28.235Z,3.57
2023-04-01T12:59:02.551Z,3.43
2023-04-01T13:02:11.480Z,3.73
2023-04-01T13:05:34.147Z,3.20
2023-04-01T13:08:44.516Z,3.30
2023-04-01T13:11:46.939Z,3.50
2023-04-01T13:15:22.032Z,4.40
2023-04-01T13:18:26.544Z,4.23
2023-04-01T13:21:21.969Z,4.20
2023-04-01T13:24:33.418Z,4.20
2023-04-01T13:27:30.110Z,4.73
2023-04-01T13:30:31.503Z,5.10
2023-04-01T13:33:30.999Z,5.10
2023-04-01T13:36:31.708Z,4.73
2023-04-01T13:39:37.478Z,5.17
2023-04-01T13:42:31.320Z,4.93
2023-04-01T13:45:27.660Z,4.30
2023-04-01T13:48:46.185Z,4.10
2023-04-01T13:51:59.347Z,4.10
2023-04-01T13:55:07.019Z,3.80
2023-04-01T13:58:18.074Z,3.70
2023-04-01T14:01:16.940Z,3.70
2023-04-01T14:04:30.055Z,3.83
2023-04-01T14:07:36.490Z,3.80
2023-04-01T14:10:36.576Z,3.63
2023-04-01T14:13:36.324Z,2.87
2023-04-01T14:16:43.596Z,3.50
2023-04-01T14:19:54.984Z,3.23
2023-04-01T14:22:57.901Z,3.50
2023-04-01T14:26:26.949Z,3.40
2023-04-01T14:29:28.105Z,2.90
2023-04-01T14:32:27.819Z,3.03
2023-04-01T14:35:40.250Z,3.10
2023-04-01T14:38:37.982Z,2.70
2023-04-01T14:41:40.164Z,2.93
2023-04-01T14:44:52.441Z,3.33
2023-04-01T14:47:55.036Z,2.83
2023-04-01T14:50:49.338Z,2.70
2023-04-01T14:53:47.239Z,2.77
2023-04-01T14:56:42.296Z,2.77
2023-04-01T14:59:33.719Z,3.03
2023-04-01T15:02:39.972Z,3.07
2023-04-01T15:05:42.684Z,3.30
2023-04-01T15:08:39.698Z,3.30
2023-04-01T15:11:45.487Z,3.40
2023-04-01T15:15:20.500Z,3.27
2023-04-01T15:18:14.801Z,3.00
2023-04-01T15:21:35.421Z,3.00
2023-04-01T15:24:29.923Z,3.27
2023-04-01T15:27:30.221Z,2.90
2023-04-01T15:30:30.750Z,3.37
2023-04-01T15:33:37.064Z,2.80
2023-04-01T15:36:41.450Z,2.50
2023-04-01T15:39:47.328Z,3.00
2023-04-01T15:42:51.464Z,2.93
2023-04-01T15:45:52.592Z,3.23
2023-04-01T15:49:06.729Z,3.00
2023-04-01T15:52:09.551Z,2.60
2023-04-01T15:55:23.942Z,2.53
2023-04-01T15:58:38.595Z,2.70
2023-04-01T16:01:38.292Z,2.37
2023-04-01T16:04:52.021Z,2.43
2023-04-01T16:07:58.986Z,2.70
2023-04-01T16:11:01.518Z,2.60
2023-04-01T16:14:07.694Z,2.83
2023-04-01T16:17:12.087Z,2.93
2023-04-01T16:20:06.165Z,2.83
2023-04-01T16:23:01.688Z,3.00
2023-04-01T16:26:04.217Z,3.20
2023-04-01T16:29:00.399Z,3.00
2023-04-01T16:31:56.152Z,2.93
2023-04-01T16:34:58.489Z,3.20
2023-04-01T16:37:52.979Z,3.63
2023-04-01T16:40:50.298Z,2.97
2023-04-01T16:43:48.803Z,3.13
2023-04-01T16:46:42.255Z,2.93
2023-04-01T16:49:40.376Z,3.27
2023-04-01T16:53:01.366Z,3.70
2023-04-01T16:55:55.976Z,3.60
2023-04-01T16:59:02.971Z,3.17
2023-04-01T17:01:58.623Z,3.30
2023-04-01T17:04:51.018Z,3.43
2023-04-01T17:07:51.699Z,3.70
2023-04-01T17:10:53.007Z,3.50
2023-04-01T17:13:57.751Z,3.73
2023-04-01T17:17:13.621Z,4.23
2023-04-01T17:20:30.872Z,3.63
2023-04-01T17:23:29.037Z,4.07
2023-04-01T17:26:40.761Z,4.40
2023-04-01T17:29:58.034Z,5.13
2023-04-01T17:33:01.624Z,4.03
2023-04-01T17:36:00.901Z,4.33
2023-04-01T17:39:20.221Z,4.10
2023-04-01T17:42:18.201Z,4.30
2023-04-01T17:45:23.428Z,4.90
2023-04-01T17:48:25.273Z,4.67
2023-04-01T17:51:26.701Z,4.60
2023-04-01T17:54:28.629Z,4.17
2023-04-01T17:57:38.208Z,4.90
2023-04-01T18:00:50.582Z,4.80
2023-04-01T18:04:08.147Z,4.90
2023-04-01T18:07:25.783Z,4.80
2023-04-01T18:10:30.425Z,5.30
2023-04-01T18:13:42.843Z,5.30
2023-04-01T18:16:56.073Z,5.63
2023-04-01T18:20:00.690Z,4.97
2023-04-01T18:22:57.948Z,5.87
2023-04-01T18:25:52.193Z,6.53
2023-04-01T18:28:45.990Z,5.47
2023-04-01T18:31:41.173Z,5.97
2023-04-01T18:34:48.312Z,5.20
2023-04-01T18:37:47.913Z,5.90
2023-04-01T18:40:42.988Z,6.33
2023-04-01T18:43:40.559Z,5.60
2023-04-01T18:46:42.479Z,6.03
2023-04-01T18:49:45.867Z,6.03
2023-04-01T18:52:41.342Z,5.43
2023-04-01T18:55:48.379Z,5.23
2023-04-01T18:58:50.100Z,5.67
2023-04-01T19:01:46.943Z,5.77
2023-04-01T19:04:43.424Z,5.70
2023-04-01T19:07:51.918Z,5.63
2023-04-01T19:10:50.954Z,5.07
2023-04-01T19:13:52.026Z,5.33
2023-04-01T19:16:53.821Z,5.17
2023-04-01T19:20:00.262Z,4.57
2023-04-01T19:23:27.463Z,4.93
2023-04-01T19:26:28.695Z,5.20
2023-04-01T19:29:33.695Z,4.30
2023-04-01T19:32:36.763Z,5.13
2023-04-01T19:35:43.649Z,5.40
2023-04-01T19:38:41.211Z,5.30
2023-04-01T19:41:43.820Z,5.10
2023-04-01T19:44:45.098Z,5.17
2023-04-01T19:47:48.934Z,5.47
2023-04-01T19:50:49.681Z,5.40
2023-04-01T19:53:49.669Z,5.53
2023-04-01T19:56:46.908Z,5.30
2023-04-01T19:59:45.819Z,5.37
2023-04-01T20:02:56.598Z,5.43
2023-04-01T20:06:13.787Z,4.97
2023-04-01T20:09:25.668Z,6.70
2023-04-01T20:12:27.379Z,5.77
2023-04-01T20:15:32.720Z,5.40
2023-04-01T20:18:28.381Z,5.73
2023-04-01T20:21:39.137Z,6.23
2023-04-01T20:24:35.911Z,5.47
2023-04-01T20:27:33.140Z,5.67
2023-04-01T20:30:55.357Z,5.20
2023-04-01T20:34:02.003Z,5.37
2023-04-01T20:37:04.629Z,5.57
2023-04-01T20:40:32.739Z,5.30
2023-04-01T20:43:46.639Z,5.53
2023-04-01T20:46:48.900Z,5.30
2023-04-01T20:49:51.440Z,5.03
2023-04-01T20:52:50.816Z,5.73
2023-04-01T20:56:07.388Z,5.47
2023-04-01T20:59:12.629Z,5.60
2023-04-01T21:02:18.157Z,5.23
2023-04-01T21:05:34.841Z,5.70
2023-04-01T21:08:35.305Z,5.60
2023-04-01T21:11:31.682Z,5.90
2023-04-01T21:14:48.266Z,6.23
2023-04-01T21:17:47.735Z,5.83
2023-04-01T21:20:53.453Z,5.27
2023-04-01T21:24:01.307Z,5.63
2023-04-01T21:26:55.743Z,5.20
2023-04-01T21:29:56.091Z,3.70
2023-04-01T21:33:07.178Z,5.10
2023-04-01T21:36:06.879Z,4.50
2023-04-01T21:39:16.757Z,4.77
2023-04-01T21:42:17.662Z,4.47
2023-04-01T21:45:27.736Z,4.67
2023-04-01T21:48:45.984Z,4.47
2023-04-01T21:52:04.882Z,4.57
2023-04-01T21:55:16.702Z,4.33
2023-04-01T21:58:38.614Z,4.00
2023-04-01T22:01:54.895Z,3.87
2023-04-01T22:04:51.664Z,4.20
2023-04-01T22:07:45.259Z,4.57
2023-04-01T22:10:43.518Z,3.70
2023-04-01T22:13:42.173Z,4.43
2023-04-01T22:16:41.011Z,4.30
2023-04-01T22:19:38.664Z,4.77
2023-04-01T22:22:34.105Z,4.57
2023-04-01T22:25:28.516Z,4.70
2023-04-01T22:28:24.076Z,3.93
2023-04-01T22:31:19.054Z,4.60
2023-04-01T22:34:15.406Z,5.00
2023-04-01T22:37:14.078Z,4.67
2023-04-01T22:40:20.126Z,5.20
2023-04-01T22:43:14.663Z,5.10
2023-04-01T22:46:32.240Z,4.70
2023-04-01T22:49:29.438Z,4.70
2023-04-01T22:52:27.223Z,5.10
2023-04-01T22:55:20.228Z,4.13
2023-04-01T22:58:17.265Z,4.33
2023-04-01T23:01:13.558Z,4.30
2023-04-01T23:04:07.856Z,4.10
2023-04-01T23:07:02.167Z,3.70
2023-04-01T23:09:53.583Z,4.10
2023-04-01T23:12:43.478Z,4.20
2023-04-01T23:15:34.190Z,4.30
2023-04-01T23:18:27.030Z,4.73
2023-04-01T23:21:24.169Z,4.17
2023-04-01T23:24:22.812Z,4.37
2023-04-01T23:27:20.069Z,4.23
2023-04-01T23:30:49.340Z,4.13
2023-04-01T23:33:39.049Z,4.93
2023-04-01T23:36:31.249Z,4.27
2023-04-01T23:39:26.328Z,4.60
2023-04-01T23:42:22.596Z,4.17
2023-04-01T23:45:18.567Z,4.20
2023-04-01T23:48:09.109Z,4.60
2023-04-01T23:50:59.854Z,4.90
2023-04-01T23:54:01.687Z,5.13
2023-04-01T23:56:54.656Z,4.83
2023-04-01T23:59:44.539Z,4.37
